sensor_id;sensor_type;location;lat;lon;timestamp;P1;durP1;ratioP1;P2;durP2;ratioP2
12334;SDS011;6233;51.560;9.986;2022-12-20T00:01:30;17.50;;;12.63;;
12334;SDS011;6233;51.560;9.986;2022-12-20T00:04:33;16.90;;;12.60;;
12334;SDS011;6233;51.560;9.986;2022-12-20T00:07:35;18.90;;;13.00;;
12334;SDS011;6233;51.560;9.986;2022-12-20T00:10:37;17.57;;;11.60;;
12334;SDS011;6233;51.560;9.986;2022-12-20T00:13:40;15.83;;;12.27;;
12334;SDS011;6233;51.560;9.986;2022-12-20T00:16:43;17.17;;;12.33;;
12334;SDS011;6233;51.560;9.986;2022-12-20T00:19:45;16.37;;;12.00;;
12334;SDS011;6233;51.560;9.986;2022-12-20T00:22:46;17.07;;;12.23;;
12334;SDS011;6233;51.560;9.986;2022-12-20T00:25:48;18.17;;;12.47;;
12334;SDS011;6233;51.560;9.986;2022-12-20T00:28:50;16.97;;;11.87;;
12334;SDS011;6233;51.560;9.986;2022-12-20T00:31:52;16.93;;;11.73;;
12334;SDS011;6233;51.560;9.986;2022-12-20T00:34:54;15.60;;;11.87;;
12334;SDS011;6233;51.560;9.986;2022-12-20T00:37:55;18.53;;;12.10;;
12334;SDS011;6233;51.560;9.986;2022-12-20T00:40:58;17.67;;;12.27;;
12334;SDS011;6233;51.560;9.986;2022-12-20T00:44:06;19.10;;;12.67;;
12334;SDS011;6233;51.560;9.986;2022-12-20T00:47:07;16.50;;;12.40;;
12334;SDS011;6233;51.560;9.986;2022-12-20T00:50:10;16.80;;;11.90;;
12334;SDS011;6233;51.560;9.986;2022-12-20T00:53:15;15.53;;;11.30;;
12334;SDS011;6233;51.560;9.986;2022-12-20T00:56:24;15.27;;;10.70;;
12334;SDS011;6233;51.560;9.986;2022-12-20T00:59:26;15.07;;;11.87;;
12334;SDS011;6233;51.560;9.986;2022-12-20T01:02:28;16.80;;;11.67;;
12334;SDS011;6233;51.560;9.986;2022-12-20T01:05:30;15.90;;;10.90;;
12334;SDS011;6233;51.560;9.986;2022-12-20T01:08:32;17.20;;;12.30;;
12334;SDS011;6233;51.560;9.986;2022-12-20T01:11:35;16.10;;;11.80;;
12334;SDS011;6233;51.560;9.986;2022-12-20T01:14:38;15.33;;;11.17;;
12334;SDS011;6233;51.560;9.986;2022-12-20T01:17:40;16.40;;;11.07;;
12334;SDS011;6233;51.560;9.986;2022-12-20T01:20:42;17.03;;;11.13;;
12334;SDS011;6233;51.560;9.986;2022-12-20T01:23:44;16.47;;;12.07;;
12334;SDS011;6233;51.560;9.986;2022-12-20T01:26:46;16.63;;;11.53;;
12334;SDS011;6233;51.560;9.986;2022-12-20T01:29:48;16.47;;;11.70;;
12334;SDS011;6233;51.560;9.986;2022-12-20T01:32:51;15.87;;;11.80;;
12334;SDS011;6233;51.560;9.986;2022-12-20T01:35:53;16.50;;;11.63;;
12334;SDS011;6233;51.560;9.986;2022-12-20T01:38:57;17.13;;;11.87;;
12334;SDS011;6233;51.560;9.986;2022-12-20T01:42:13;18.90;;;11.33;;
12334;SDS011;6233;51.560;9.986;2022-12-20T01:45:19;15.90;;;11.70;;
12334;SDS011;6233;51.560;9.986;2022-12-20T01:48:27;20.37;;;11.87;;
12334;SDS011;6233;51.560;9.986;2022-12-20T01:51:30;17.77;;;11.53;;
12334;SDS011;6233;51.560;9.986;2022-12-20T01:54:38;16.43;;;11.77;;
12334;SDS011;6233;51.560;9.986;2022-12-20T01:57:47;17.47;;;12.10;;
12334;SDS011;6233;51.560;9.986;2022-12-20T02:01:10;17.03;;;11.70;;
12334;SDS011;6233;51.560;9.986;2022-12-20T02:04:12;16.87;;;12.53;;
12334;SDS011;6233;51.560;9.986;2022-12-20T02:07:16;17.47;;;11.63;;
12334;SDS011;6233;51.560;9.986;2022-12-20T02:10:22;14.23;;;11.10;;
12334;SDS011;6233;51.560;9.986;2022-12-20T02:20:28;17.70;;;11.90;;
12334;SDS011;6233;51.560;9.986;2022-12-20T02:30:33;15.40;;;12.07;;
12334;SDS011;6233;51.560;9.986;2022-12-20T02:33:40;18.27;;;11.93;;
12334;SDS011;6233;51.560;9.986;2022-12-20T02:36:43;13.97;;;11.20;;
12334;SDS011;6233;51.560;9.986;2022-12-20T02:39:45;15.87;;;12.07;;
12334;SDS011;6233;51.560;9.986;2022-12-20T02:42:48;16.53;;;12.07;;
12334;SDS011;6233;51.560;9.986;2022-12-20T02:45:54;19.10;;;12.47;;
12334;SDS011;6233;51.560;9.986;2022-12-20T02:49:00;17.47;;;12.53;;
12334;SDS011;6233;51.560;9.986;2022-12-20T02:52:06;18.20;;;11.83;;
12334;SDS011;6233;51.560;9.986;2022-12-20T02:55:10;17.37;;;12.33;;
12334;SDS011;6233;51.560;9.986;2022-12-20T02:58:21;20.27;;;12.90;;
12334;SDS011;6233;51.560;9.986;2022-12-20T03:01:42;17.87;;;13.07;;
12334;SDS011;6233;51.560;9.986;2022-12-20T03:04:47;18.60;;;12.27;;
12334;SDS011;6233;51.560;9.986;2022-12-20T03:07:49;17.27;;;11.83;;
12334;SDS011;6233;51.560;9.986;2022-12-20T03:10:52;16.73;;;12.77;;
12334;SDS011;6233;51.560;9.986;2022-12-20T03:13:54;18.40;;;11.97;;
12334;SDS011;6233;51.560;9.986;2022-12-20T03:16:56;15.63;;;11.83;;
12334;SDS011;6233;51.560;9.986;2022-12-20T03:19:58;16.73;;;11.70;;
12334;SDS011;6233;51.560;9.986;2022-12-20T03:23:00;18.50;;;11.13;;
12334;SDS011;6233;51.560;9.986;2022-12-20T03:26:02;17.97;;;11.33;;
12334;SDS011;6233;51.560;9.986;2022-12-20T03:29:07;15.43;;;10.90;;
12334;SDS011;6233;51.560;9.986;2022-12-20T03:32:09;16.43;;;11.83;;
12334;SDS011;6233;51.560;9.986;2022-12-20T03:35:12;16.23;;;11.50;;
12334;SDS011;6233;51.560;9.986;2022-12-20T03:38:13;15.83;;;11.63;;
12334;SDS011;6233;51.560;9.986;2022-12-20T03:41:15;16.37;;;11.77;;
12334;SDS011;6233;51.560;9.986;2022-12-20T03:44:17;17.63;;;12.37;;
12334;SDS011;6233;51.560;9.986;2022-12-20T03:47:19;15.23;;;11.47;;
12334;SDS011;6233;51.560;9.986;2022-12-20T03:50:21;18.70;;;12.87;;
12334;SDS011;6233;51.560;9.986;2022-12-20T03:53:23;16.83;;;12.00;;
12334;SDS011;6233;51.560;9.986;2022-12-20T03:56:24;18.47;;;13.13;;
12334;SDS011;6233;51.560;9.986;2022-12-20T03:59:26;17.00;;;11.90;;
12334;SDS011;6233;51.560;9.986;2022-12-20T04:02:28;17.73;;;12.03;;
12334;SDS011;6233;51.560;9.986;2022-12-20T04:05:30;16.20;;;12.20;;
12334;SDS011;6233;51.560;9.986;2022-12-20T04:08:32;17.47;;;12.50;;
12334;SDS011;6233;51.560;9.986;2022-12-20T04:11:34;17.73;;;12.47;;
12334;SDS011;6233;51.560;9.986;2022-12-20T04:14:35;18.53;;;12.77;;
12334;SDS011;6233;51.560;9.986;2022-12-20T04:17:37;17.60;;;11.60;;
12334;SDS011;6233;51.560;9.986;2022-12-20T04:20:39;19.37;;;13.13;;
12334;SDS011;6233;51.560;9.986;2022-12-20T04:23:41;17.57;;;13.27;;
12334;SDS011;6233;51.560;9.986;2022-12-20T04:26:43;17.80;;;12.93;;
12334;SDS011;6233;51.560;9.986;2022-12-20T04:29:45;19.10;;;13.33;;
12334;SDS011;6233;51.560;9.986;2022-12-20T04:32:47;17.53;;;13.27;;
12334;SDS011;6233;51.560;9.986;2022-12-20T04:35:48;19.47;;;13.33;;
12334;SDS011;6233;51.560;9.986;2022-12-20T04:38:50;19.80;;;12.80;;
12334;SDS011;6233;51.560;9.986;2022-12-20T04:41:54;16.67;;;12.63;;
12334;SDS011;6233;51.560;9.986;2022-12-20T04:44:56;19.63;;;12.93;;
12334;SDS011;6233;51.560;9.986;2022-12-20T04:47:58;18.07;;;12.57;;
12334;SDS011;6233;51.560;9.986;2022-12-20T04:51:20;20.30;;;13.47;;
12334;SDS011;6233;51.560;9.986;2022-12-20T04:54:24;18.07;;;12.60;;
12334;SDS011;6233;51.560;9.986;2022-12-20T04:57:26;19.07;;;13.73;;
12334;SDS011;6233;51.560;9.986;2022-12-20T05:00:28;17.17;;;12.90;;
12334;SDS011;6233;51.560;9.986;2022-12-20T05:03:42;17.50;;;12.60;;
12334;SDS011;6233;51.560;9.986;2022-12-20T05:06:46;18.13;;;13.07;;
12334;SDS011;6233;51.560;9.986;2022-12-20T05:09:48;18.30;;;12.40;;
12334;SDS011;6233;51.560;9.986;2022-12-20T05:12:50;16.80;;;12.47;;
12334;SDS011;6233;51.560;9.986;2022-12-20T05:15:54;18.30;;;12.37;;
12334;SDS011;6233;51.560;9.986;2022-12-20T05:18:56;17.43;;;12.33;;
12334;SDS011;6233;51.560;9.986;2022-12-20T05:21:58;15.87;;;12.40;;
12334;SDS011;6233;51.560;9.986;2022-12-20T05:25:19;17.07;;;12.27;;
12334;SDS011;6233;51.560;9.986;2022-12-20T05:28:39;16.90;;;11.57;;
12334;SDS011;6233;51.560;9.986;2022-12-20T05:31:41;14.73;;;11.47;;
12334;SDS011;6233;51.560;9.986;2022-12-20T05:34:52;15.37;;;11.20;;
12334;SDS011;6233;51.560;9.986;2022-12-20T05:37:54;16.23;;;11.03;;
12334;SDS011;6233;51.560;9.986;2022-12-20T05:40:56;16.63;;;11.30;;
12334;SDS011;6233;51.560;9.986;2022-12-20T05:43:58;16.60;;;11.20;;
12334;SDS011;6233;51.560;9.986;2022-12-20T05:46:59;15.43;;;11.00;;
12334;SDS011;6233;51.560;9.986;2022-12-20T05:50:02;15.20;;;10.67;;
12334;SDS011;6233;51.560;9.986;2022-12-20T05:53:04;14.73;;;10.87;;
12334;SDS011;6233;51.560;9.986;2022-12-20T05:56:12;14.43;;;10.90;;
12334;SDS011;6233;51.560;9.986;2022-12-20T05:59:14;15.63;;;11.47;;
12334;SDS011;6233;51.560;9.986;2022-12-20T06:02:17;15.77;;;11.27;;
12334;SDS011;6233;51.560;9.986;2022-12-20T06:05:19;16.93;;;10.73;;
12334;SDS011;6233;51.560;9.986;2022-12-20T06:08:22;14.60;;;10.40;;
12334;SDS011;6233;51.560;9.986;2022-12-20T06:11:24;13.03;;;10.27;;
12334;SDS011;6233;51.560;9.986;2022-12-20T06:14:30;15.03;;;10.73;;
12334;SDS011;6233;51.560;9.986;2022-12-20T06:17:32;13.47;;;10.70;;
12334;SDS011;6233;51.560;9.986;2022-12-20T06:20:36;16.03;;;10.23;;
12334;SDS011;6233;51.560;9.986;2022-12-20T06:23:40;15.23;;;10.60;;
12334;SDS011;6233;51.560;9.986;2022-12-20T06:26:42;14.50;;;10.00;;
12334;SDS011;6233;51.560;9.986;2022-12-20T06:29:44;14.53;;;10.40;;
12334;SDS011;6233;51.560;9.986;2022-12-20T06:32:51;13.73;;;10.73;;
12334;SDS011;6233;51.560;9.986;2022-12-20T06:35:53;13.80;;;10.77;;
12334;SDS011;6233;51.560;9.986;2022-12-20T06:38:55;14.50;;;10.70;;
12334;SDS011;6233;51.560;9.986;2022-12-20T06:41:57;15.43;;;10.53;;
12334;SDS011;6233;51.560;9.986;2022-12-20T06:44:59;15.10;;;10.20;;
12334;SDS011;6233;51.560;9.986;2022-12-20T06:48:01;14.13;;;10.57;;
12334;SDS011;6233;51.560;9.986;2022-12-20T06:51:03;15.50;;;10.83;;
12334;SDS011;6233;51.560;9.986;2022-12-20T06:54:05;12.77;;;9.63;;
12334;SDS011;6233;51.560;9.986;2022-12-20T06:57:06;14.57;;;10.73;;
12334;SDS011;6233;51.560;9.986;2022-12-20T07:00:08;13.90;;;10.77;;
12334;SDS011;6233;51.560;9.986;2022-12-20T07:03:13;12.93;;;10.10;;
12334;SDS011;6233;51.560;9.986;2022-12-20T07:06:15;14.13;;;11.00;;
12334;SDS011;6233;51.560;9.986;2022-12-20T07:09:17;13.47;;;9.73;;
12334;SDS011;6233;51.560;9.986;2022-12-20T07:12:19;11.47;;;9.83;;
12334;SDS011;6233;51.560;9.986;2022-12-20T07:15:20;12.83;;;9.80;;
12334;SDS011;6233;51.560;9.986;2022-12-20T07:18:22;14.87;;;10.10;;
12334;SDS011;6233;51.560;9.986;2022-12-20T07:21:26;14.27;;;10.43;;
12334;SDS011;6233;51.560;9.986;2022-12-20T07:24:28;16.17;;;11.70;;
12334;SDS011;6233;51.560;9.986;2022-12-20T07:27:30;15.20;;;10.70;;
12334;SDS011;6233;51.560;9.986;2022-12-20T07:30:32;13.33;;;9.87;;
12334;SDS011;6233;51.560;9.986;2022-12-20T07:33:34;13.17;;;10.00;;
12334;SDS011;6233;51.560;9.986;2022-12-20T07:36:37;15.20;;;11.23;;
12334;SDS011;6233;51.560;9.986;2022-12-20T07:39:41;14.90;;;10.30;;
12334;SDS011;6233;51.560;9.986;2022-12-20T07:42:43;14.10;;;9.90;;
12334;SDS011;6233;51.560;9.986;2022-12-20T07:45:52;13.30;;;10.17;;
12334;SDS011;6233;51.560;9.986;2022-12-20T07:48:56;13.00;;;9.93;;
12334;SDS011;6233;51.560;9.986;2022-12-20T07:51:58;13.07;;;10.23;;
12334;SDS011;6233;51.560;9.986;2022-12-20T07:58:30;14.33;;;10.00;;
12334;SDS011;6233;51.560;9.986;2022-12-20T08:02:07;11.73;;;9.67;;
12334;SDS011;6233;51.560;9.986;2022-12-20T08:05:21;11.80;;;8.97;;
12334;SDS011;6233;51.560;9.986;2022-12-20T08:08:46;12.87;;;9.10;;
12334;SDS011;6233;51.560;9.986;2022-12-20T08:11:51;14.67;;;10.00;;
12334;SDS011;6233;51.560;9.986;2022-12-20T08:14:53;13.23;;;9.27;;
12334;SDS011;6233;51.560;9.986;2022-12-20T08:18:01;14.40;;;10.83;;
12334;SDS011;6233;51.560;9.986;2022-12-20T08:21:03;12.97;;;9.30;;
12334;SDS011;6233;51.560;9.986;2022-12-20T08:24:08;11.47;;;8.73;;
12334;SDS011;6233;51.560;9.986;2022-12-20T08:27:10;11.57;;;9.07;;
12334;SDS011;6233;51.560;9.986;2022-12-20T08:30:12;11.90;;;9.63;;
12334;SDS011;6233;51.560;9.986;2022-12-20T08:33:14;11.33;;;9.30;;
12334;SDS011;6233;51.560;9.986;2022-12-20T08:36:16;14.40;;;9.80;;
12334;SDS011;6233;51.560;9.986;2022-12-20T08:39:21;11.17;;;8.77;;
12334;SDS011;6233;51.560;9.986;2022-12-20T08:42:23;12.07;;;9.13;;
12334;SDS011;6233;51.560;9.986;2022-12-20T08:45:25;10.13;;;8.73;;
12334;SDS011;6233;51.560;9.986;2022-12-20T08:48:27;11.30;;;8.47;;
12334;SDS011;6233;51.560;9.986;2022-12-20T08:51:29;12.07;;;8.93;;
12334;SDS011;6233;51.560;9.986;2022-12-20T08:54:31;14.13;;;9.97;;
12334;SDS011;6233;51.560;9.986;2022-12-20T08:57:33;12.67;;;10.07;;
12334;SDS011;6233;51.560;9.986;2022-12-20T09:00:44;12.07;;;9.07;;
12334;SDS011;6233;51.560;9.986;2022-12-20T09:03:47;11.27;;;8.17;;
12334;SDS011;6233;51.560;9.986;2022-12-20T09:06:49;9.73;;;7.60;;
12334;SDS011;6233;51.560;9.986;2022-12-20T09:09:51;10.93;;;8.67;;
12334;SDS011;6233;51.560;9.986;2022-12-20T09:12:52;9.07;;;7.70;;
12334;SDS011;6233;51.560;9.986;2022-12-20T09:15:58;12.40;;;8.60;;
12334;SDS011;6233;51.560;9.986;2022-12-20T09:19:02;9.73;;;7.57;;
12334;SDS011;6233;51.560;9.986;2022-12-20T09:22:06;10.90;;;8.70;;
12334;SDS011;6233;51.560;9.986;2022-12-20T09:25:09;13.77;;;8.53;;
12334;SDS011;6233;51.560;9.986;2022-12-20T09:28:11;11.93;;;8.47;;
12334;SDS011;6233;51.560;9.986;2022-12-20T09:31:17;10.40;;;7.80;;
12334;SDS011;6233;51.560;9.986;2022-12-20T09:34:24;9.87;;;7.17;;
12334;SDS011;6233;51.560;9.986;2022-12-20T09:37:28;11.00;;;8.73;;
12334;SDS011;6233;51.560;9.986;2022-12-20T09:40:33;8.60;;;7.67;;
12334;SDS011;6233;51.560;9.986;2022-12-20T09:43:37;8.70;;;7.27;;
12334;SDS011;6233;51.560;9.986;2022-12-20T09:46:40;9.37;;;7.37;;
12334;SDS011;6233;51.560;9.986;2022-12-20T09:49:44;8.73;;;7.53;;
12334;SDS011;6233;51.560;9.986;2022-12-20T09:56:00;11.23;;;7.80;;
12334;SDS011;6233;51.560;9.986;2022-12-20T09:59:10;10.17;;;7.73;;
12334;SDS011;6233;51.560;9.986;2022-12-20T10:02:15;9.27;;;7.30;;
12334;SDS011;6233;51.560;9.986;2022-12-20T10:05:57;10.37;;;7.13;;
12334;SDS011;6233;51.560;9.986;2022-12-20T10:09:09;11.57;;;7.37;;
12334;SDS011;6233;51.560;9.986;2022-12-20T10:16:15;7.10;;;6.40;;
12334;SDS011;6233;51.560;9.986;2022-12-20T10:22:53;8.60;;;6.87;;
12334;SDS011;6233;51.560;9.986;2022-12-20T10:26:00;8.87;;;6.87;;
12334;SDS011;6233;51.560;9.986;2022-12-20T10:29:10;8.10;;;6.03;;
12334;SDS011;6233;51.560;9.986;2022-12-20T10:32:13;6.73;;;5.97;;
12334;SDS011;6233;51.560;9.986;2022-12-20T10:35:22;8.33;;;6.20;;
12334;SDS011;6233;51.560;9.986;2022-12-20T10:38:26;7.57;;;6.77;;
12334;SDS011;6233;51.560;9.986;2022-12-20T10:41:48;8.07;;;5.70;;
12334;SDS011;6233;51.560;9.986;2022-12-20T10:44:52;7.93;;;6.47;;
12334;SDS011;6233;51.560;9.986;2022-12-20T10:47:58;6.77;;;5.77;;
12334;SDS011;6233;51.560;9.986;2022-12-20T10:54:24;8.20;;;5.10;;
12334;SDS011;6233;51.560;9.986;2022-12-20T10:57:34;8.13;;;5.53;;
12334;SDS011;6233;51.560;9.986;2022-12-20T11:00:36;7.70;;;5.80;;
12334;SDS011;6233;51.560;9.986;2022-12-20T11:03:55;7.10;;;5.63;;
12334;SDS011;6233;51.560;9.986;2022-12-20T11:07:00;8.53;;;6.20;;
12334;SDS011;6233;51.560;9.986;2022-12-20T11:13:38;8.00;;;6.10;;
12334;SDS011;6233;51.560;9.986;2022-12-20T11:16:41;7.33;;;6.20;;
12334;SDS011;6233;51.560;9.986;2022-12-20T11:19:59;6.67;;;5.77;;
12334;SDS011;6233;51.560;9.986;2022-12-20T11:23:16;8.27;;;6.27;;
12334;SDS011;6233;51.560;9.986;2022-12-20T11:30:19;6.67;;;5.60;;
12334;SDS011;6233;51.560;9.986;2022-12-20T11:40:41;5.90;;;5.23;;
12334;SDS011;6233;51.560;9.986;2022-12-20T11:47:27;7.00;;;5.80;;
12334;SDS011;6233;51.560;9.986;2022-12-20T11:50:57;7.07;;;5.80;;
12334;SDS011;6233;51.560;9.986;2022-12-20T11:54:29;7.70;;;6.67;;
12334;SDS011;6233;51.560;9.986;2022-12-20T11:57:58;8.70;;;6.27;;
12334;SDS011;6233;51.560;9.986;2022-12-20T12:01:25;6.80;;;5.63;;
12334;SDS011;6233;51.560;9.986;2022-12-20T12:04:46;7.90;;;6.33;;
12334;SDS011;6233;51.560;9.986;2022-12-20T12:08:09;7.33;;;6.23;;
12334;SDS011;6233;51.560;9.986;2022-12-20T12:11:23;8.27;;;6.40;;
12334;SDS011;6233;51.560;9.986;2022-12-20T12:18:08;7.23;;;5.90;;
12334;SDS011;6233;51.560;9.986;2022-12-20T12:21:21;9.20;;;6.07;;
12334;SDS011;6233;51.560;9.986;2022-12-20T12:24:40;6.27;;;5.53;;
12334;SDS011;6233;51.560;9.986;2022-12-20T12:27:48;7.80;;;6.13;;
12334;SDS011;6233;51.560;9.986;2022-12-20T12:30:58;8.47;;;5.80;;
12334;SDS011;6233;51.560;9.986;2022-12-20T12:41:11;7.10;;;5.83;;
12334;SDS011;6233;51.560;9.986;2022-12-20T12:47:27;7.40;;;5.77;;
12334;SDS011;6233;51.560;9.986;2022-12-20T12:50:39;7.17;;;6.07;;
12334;SDS011;6233;51.560;9.986;2022-12-20T12:53:53;8.73;;;6.33;;
12334;SDS011;6233;51.560;9.986;2022-12-20T12:57:06;8.43;;;6.47;;
12334;SDS011;6233;51.560;9.986;2022-12-20T13:04:20;7.93;;;6.00;;
12334;SDS011;6233;51.560;9.986;2022-12-20T13:17:59;7.27;;;6.10;;
12334;SDS011;6233;51.560;9.986;2022-12-20T13:21:35;6.53;;;5.50;;
12334;SDS011;6233;51.560;9.986;2022-12-20T13:25:53;7.10;;;6.23;;
12334;SDS011;6233;51.560;9.986;2022-12-20T13:29:20;7.17;;;5.87;;
12334;SDS011;6233;51.560;9.986;2022-12-20T13:36:02;16.17;;;9.37;;
12334;SDS011;6233;51.560;9.986;2022-12-20T13:39:33;8.90;;;7.30;;
12334;SDS011;6233;51.560;9.986;2022-12-20T13:54:38;14.90;;;12.47;;
12334;SDS011;6233;51.560;9.986;2022-12-20T13:57:42;8.20;;;6.83;;
12334;SDS011;6233;51.560;9.986;2022-12-20T14:00:46;10.47;;;7.67;;
12334;SDS011;6233;51.560;9.986;2022-12-20T14:04:17;7.23;;;5.93;;
12334;SDS011;6233;51.560;9.986;2022-12-20T14:07:20;9.17;;;5.90;;
12334;SDS011;6233;51.560;9.986;2022-12-20T14:10:22;8.03;;;6.07;;
12334;SDS011;6233;51.560;9.986;2022-12-20T14:13:26;7.90;;;6.47;;
12334;SDS011;6233;51.560;9.986;2022-12-20T14:16:31;7.90;;;6.30;;
12334;SDS011;6233;51.560;9.986;2022-12-20T14:19:33;7.77;;;6.50;;
12334;SDS011;6233;51.560;9.986;2022-12-20T14:22:35;10.83;;;9.60;;
12334;SDS011;6233;51.560;9.986;2022-12-20T14:28:45;11.13;;;7.60;;
12334;SDS011;6233;51.560;9.986;2022-12-20T14:31:49;8.57;;;6.27;;
12334;SDS011;6233;51.560;9.986;2022-12-20T14:34:50;7.83;;;6.30;;
12334;SDS011;6233;51.560;9.986;2022-12-20T14:37:55;8.83;;;7.27;;
12334;SDS011;6233;51.560;9.986;2022-12-20T14:41:03;7.80;;;7.00;;
12334;SDS011;6233;51.560;9.986;2022-12-20T14:44:26;12.03;;;7.40;;
12334;SDS011;6233;51.560;9.986;2022-12-20T14:47:30;6.97;;;6.27;;
12334;SDS011;6233;51.560;9.986;2022-12-20T14:50:33;6.70;;;6.00;;
12334;SDS011;6233;51.560;9.986;2022-12-20T14:53:36;7.17;;;5.50;;
12334;SDS011;6233;51.560;9.986;2022-12-20T14:56:45;9.50;;;6.50;;
12334;SDS011;6233;51.560;9.986;2022-12-20T14:59:56;8.93;;;6.67;;
12334;SDS011;6233;51.560;9.986;2022-12-20T15:03:16;8.00;;;6.43;;
12334;SDS011;6233;51.560;9.986;2022-12-20T15:09:34;7.23;;;6.53;;
12334;SDS011;6233;51.560;9.986;2022-12-20T15:12:36;10.90;;;7.73;;
12334;SDS011;6233;51.560;9.986;2022-12-20T15:15:43;9.63;;;6.47;;
12334;SDS011;6233;51.560;9.986;2022-12-20T15:18:46;7.00;;;5.70;;
12334;SDS011;6233;51.560;9.986;2022-12-20T15:22:13;7.57;;;5.97;;
12334;SDS011;6233;51.560;9.986;2022-12-20T15:25:20;6.53;;;5.73;;
12334;SDS011;6233;51.560;9.986;2022-12-20T15:28:22;6.67;;;5.80;;
12334;SDS011;6233;51.560;9.986;2022-12-20T15:31:26;8.67;;;5.50;;
12334;SDS011;6233;51.560;9.986;2022-12-20T15:34:35;7.80;;;5.83;;
12334;SDS011;6233;51.560;9.986;2022-12-20T15:37:38;7.00;;;5.30;;
12334;SDS011;6233;51.560;9.986;2022-12-20T15:40:40;7.13;;;6.13;;
12334;SDS011;6233;51.560;9.986;2022-12-20T15:43:42;8.07;;;6.60;;
12334;SDS011;6233;51.560;9.986;2022-12-20T15:46:44;8.93;;;6.40;;
12334;SDS011;6233;51.560;9.986;2022-12-20T15:49:46;7.63;;;5.97;;
12334;SDS011;6233;51.560;9.986;2022-12-20T15:52:50;7.33;;;5.93;;
12334;SDS011;6233;51.560;9.986;2022-12-20T15:55:53;10.47;;;8.23;;
12334;SDS011;6233;51.560;9.986;2022-12-20T15:58:56;8.43;;;6.53;;
12334;SDS011;6233;51.560;9.986;2022-12-20T16:01:58;8.50;;;6.50;;
12334;SDS011;6233;51.560;9.986;2022-12-20T16:05:00;7.10;;;6.40;;
12334;SDS011;6233;51.560;9.986;2022-12-20T16:08:02;7.50;;;5.93;;
12334;SDS011;6233;51.560;9.986;2022-12-20T16:11:06;7.47;;;6.20;;
12334;SDS011;6233;51.560;9.986;2022-12-20T16:14:20;6.67;;;5.97;;
12334;SDS011;6233;51.560;9.986;2022-12-20T16:17:23;8.03;;;6.17;;
12334;SDS011;6233;51.560;9.986;2022-12-20T16:20:25;7.33;;;6.23;;
12334;SDS011;6233;51.560;9.986;2022-12-20T16:23:27;7.57;;;6.20;;
12334;SDS011;6233;51.560;9.986;2022-12-20T16:26:29;7.50;;;6.00;;
12334;SDS011;6233;51.560;9.986;2022-12-20T16:29:31;7.40;;;6.67;;
12334;SDS011;6233;51.560;9.986;2022-12-20T16:32:33;8.33;;;6.60;;
12334;SDS011;6233;51.560;9.986;2022-12-20T16:35:35;7.30;;;6.03;;
12334;SDS011;6233;51.560;9.986;2022-12-20T16:38:37;7.70;;;6.10;;
12334;SDS011;6233;51.560;9.986;2022-12-20T16:41:39;7.30;;;6.23;;
12334;SDS011;6233;51.560;9.986;2022-12-20T16:44:43;8.30;;;6.13;;
12334;SDS011;6233;51.560;9.986;2022-12-20T16:47:46;7.10;;;6.07;;
12334;SDS011;6233;51.560;9.986;2022-12-20T16:50:49;8.90;;;7.40;;
12334;SDS011;6233;51.560;9.986;2022-12-20T16:53:51;9.20;;;6.43;;
12334;SDS011;6233;51.560;9.986;2022-12-20T16:57:14;10.50;;;7.40;;
12334;SDS011;6233;51.560;9.986;2022-12-20T17:00:25;8.23;;;7.10;;
12334;SDS011;6233;51.560;9.986;2022-12-20T17:03:27;9.43;;;7.10;;
12334;SDS011;6233;51.560;9.986;2022-12-20T17:06:29;11.20;;;6.70;;
12334;SDS011;6233;51.560;9.986;2022-12-20T17:09:31;8.73;;;6.30;;
12334;SDS011;6233;51.560;9.986;2022-12-20T17:12:33;7.30;;;6.60;;
12334;SDS011;6233;51.560;9.986;2022-12-20T17:15:34;9.57;;;7.57;;
12334;SDS011;6233;51.560;9.986;2022-12-20T17:18:38;8.00;;;7.10;;
12334;SDS011;6233;51.560;9.986;2022-12-20T17:21:44;8.77;;;7.03;;
12334;SDS011;6233;51.560;9.986;2022-12-20T17:25:10;6.67;;;5.97;;
12334;SDS011;6233;51.560;9.986;2022-12-20T17:28:35;6.77;;;6.07;;
12334;SDS011;6233;51.560;9.986;2022-12-20T17:31:38;9.00;;;6.20;;
12334;SDS011;6233;51.560;9.986;2022-12-20T17:34:43;6.80;;;6.07;;
12334;SDS011;6233;51.560;9.986;2022-12-20T17:37:45;6.73;;;6.03;;
12334;SDS011;6233;51.560;9.986;2022-12-20T17:40:47;6.80;;;6.00;;
12334;SDS011;6233;51.560;9.986;2022-12-20T17:43:49;7.93;;;6.13;;
12334;SDS011;6233;51.560;9.986;2022-12-20T17:46:52;7.33;;;5.97;;
12334;SDS011;6233;51.560;9.986;2022-12-20T17:49:55;7.00;;;5.60;;
12334;SDS011;6233;51.560;9.986;2022-12-20T17:53:12;8.10;;;6.67;;
12334;SDS011;6233;51.560;9.986;2022-12-20T17:56:37;9.53;;;6.50;;
12334;SDS011;6233;51.560;9.986;2022-12-20T18:05:22;10.07;;;7.47;;
12334;SDS011;6233;51.560;9.986;2022-12-20T18:13:12;9.27;;;7.33;;
12334;SDS011;6233;51.560;9.986;2022-12-20T18:16:24;6.93;;;6.00;;
12334;SDS011;6233;51.560;9.986;2022-12-20T18:19:35;8.43;;;6.73;;
12334;SDS011;6233;51.560;9.986;2022-12-20T18:22:37;8.70;;;6.70;;
12334;SDS011;6233;51.560;9.986;2022-12-20T18:25:39;8.73;;;7.10;;
12334;SDS011;6233;51.560;9.986;2022-12-20T18:28:42;9.47;;;7.30;;
12334;SDS011;6233;51.560;9.986;2022-12-20T18:31:45;9.20;;;7.43;;
12334;SDS011;6233;51.560;9.986;2022-12-20T18:34:47;8.53;;;7.60;;
12334;SDS011;6233;51.560;9.986;2022-12-20T18:37:52;7.97;;;6.80;;
12334;SDS011;6233;51.560;9.986;2022-12-20T18:40:56;11.77;;;7.27;;
12334;SDS011;6233;51.560;9.986;2022-12-20T18:44:00;10.17;;;6.97;;
12334;SDS011;6233;51.560;9.986;2022-12-20T18:47:04;8.37;;;6.77;;
12334;SDS011;6233;51.560;9.986;2022-12-20T18:50:06;10.23;;;7.47;;
12334;SDS011;6233;51.560;9.986;2022-12-20T18:53:08;8.27;;;6.50;;
12334;SDS011;6233;51.560;9.986;2022-12-20T18:56:13;7.57;;;6.63;;
12334;SDS011;6233;51.560;9.986;2022-12-20T18:59:26;9.70;;;6.80;;
12334;SDS011;6233;51.560;9.986;2022-12-20T19:02:29;8.23;;;6.87;;
12334;SDS011;6233;51.560;9.986;2022-12-20T19:05:34;8.13;;;6.70;;
12334;SDS011;6233;51.560;9.986;2022-12-20T19:08:36;10.90;;;6.77;;
12334;SDS011;6233;51.560;9.986;2022-12-20T19:11:38;7.30;;;6.30;;
12334;SDS011;6233;51.560;9.986;2022-12-20T19:14:41;8.80;;;6.83;;
12334;SDS011;6233;51.560;9.986;2022-12-20T19:17:42;7.10;;;6.40;;
12334;SDS011;6233;51.560;9.986;2022-12-20T19:20:44;9.20;;;6.57;;
12334;SDS011;6233;51.560;9.986;2022-12-20T19:23:51;6.70;;;6.10;;
12334;SDS011;6233;51.560;9.986;2022-12-20T19:26:54;9.00;;;6.43;;
12334;SDS011;6233;51.560;9.986;2022-12-20T19:29:56;8.77;;;6.63;;
12334;SDS011;6233;51.560;9.986;2022-12-20T19:32:57;7.17;;;6.20;;
12334;SDS011;6233;51.560;9.986;2022-12-20T19:36:07;8.37;;;6.37;;
12334;SDS011;6233;51.560;9.986;2022-12-20T19:39:14;8.80;;;6.77;;
12334;SDS011;6233;51.560;9.986;2022-12-20T19:42:20;8.27;;;6.70;;
12334;SDS011;6233;51.560;9.986;2022-12-20T19:45:24;7.57;;;6.67;;
12334;SDS011;6233;51.560;9.986;2022-12-20T19:48:26;8.80;;;6.97;;
12334;SDS011;6233;51.560;9.986;2022-12-20T19:51:28;7.70;;;6.90;;
12334;SDS011;6233;51.560;9.986;2022-12-20T19:54:31;7.43;;;6.03;;
12334;SDS011;6233;51.560;9.986;2022-12-20T19:57:32;8.90;;;6.37;;
12334;SDS011;6233;51.560;9.986;2022-12-20T20:00:34;8.00;;;6.47;;
12334;SDS011;6233;51.560;9.986;2022-12-20T20:03:36;7.77;;;6.47;;
12334;SDS011;6233;51.560;9.986;2022-12-20T20:06:38;7.10;;;6.40;;
12334;SDS011;6233;51.560;9.986;2022-12-20T20:09:40;10.17;;;7.03;;
12334;SDS011;6233;51.560;9.986;2022-12-20T20:12:42;7.93;;;6.63;;
12334;SDS011;6233;51.560;9.986;2022-12-20T20:15:49;7.33;;;6.63;;
12334;SDS011;6233;51.560;9.986;2022-12-20T20:18:55;10.13;;;7.27;;
12334;SDS011;6233;51.560;9.986;2022-12-20T20:21:57;7.73;;;6.87;;
12334;SDS011;6233;51.560;9.986;2022-12-20T20:24:58;8.27;;;6.70;;
12334;SDS011;6233;51.560;9.986;2022-12-20T20:28:01;7.67;;;6.87;;
12334;SDS011;6233;51.560;9.986;2022-12-20T20:31:03;8.90;;;7.70;;